sensor_id;sensor_type;location;lat;lon;timestamp;pressure;altitude;pressure_sealevel;temperature;humidity
3697;BME280;60662;48.810;8.872;2024-02-15T07:08:23;97014.75;;;8.00;98.10
3697;BME280;60662;48.810;8.872;2024-02-15T07:12:40;97001.81;;;8.86;93.08
3697;BME280;60662;48.810;8.872;2024-02-15T07:14:55;96996.50;;;9.15;90.80
3697;BME280;60662;48.810;8.872;2024-02-15T07:15:57;96989.50;;;9.43;89.90
3697;BME280;60662;48.810;8.872;2024-02-15T07:16:58;96996.34;;;9.71;88.65
3697;BME280;60662;48.810;8.872;2024-02-15T07:18:57;96980.22;;;10.08;86.27
3697;BME280;60662;48.810;8.872;2024-02-15T07:24:17;96992.97;;;10.16;85.39
3697;BME280;60662;48.810;8.872;2024-02-15T07:25:19;96988.91;;;10.55;84.03
3697;BME280;60662;48.810;8.872;2024-02-15T07:26:21;96982.66;;;10.81;82.33
3697;BME280;60662;48.810;8.872;2024-02-15T07:27:25;96983.50;;;11.24;81.08
3697;BME280;60662;48.810;8.872;2024-02-15T07:28:28;96959.56;;;10.70;81.74
3697;BME280;60662;48.810;8.872;2024-02-15T07:29:29;96975.75;;;11.01;81.27
3697;BME280;60662;48.810;8.872;2024-02-15T07:30:32;96978.59;;;11.17;80.65
3697;BME280;60662;48.810;8.872;2024-02-15T07:31:34;96970.19;;;11.10;80.57
3697;BME280;60662;48.810;8.872;2024-02-15T07:32:36;96968.03;;;11.40;79.57
3697;BME280;60662;48.810;8.872;2024-02-15T07:33:38;96967.72;;;11.27;79.39
3697;BME280;60662;48.810;8.872;2024-02-15T07:34:40;96977.91;;;11.54;78.56
3697;BME280;60662;48.810;8.872;2024-02-15T07:35:44;96954.31;;;10.72;80.56
3697;BME280;60662;48.810;8.872;2024-02-15T07:36:45;96972.63;;;10.92;80.74
3697;BME280;60662;48.810;8.872;2024-02-15T07:37:54;96960.25;;;10.75;80.48
3697;BME280;60662;48.810;8.872;2024-02-15T07:38:57;96970.84;;;10.50;81.85
3697;BME280;60662;48.810;8.872;2024-02-15T07:40:02;96975.59;;;10.15;82.40
3697;BME280;60662;48.810;8.872;2024-02-15T07:41:09;96964.81;;;10.48;82.10
3697;BME280;60662;48.810;8.872;2024-02-15T07:42:10;96963.47;;;10.60;81.08
3697;BME280;60662;48.810;8.872;2024-02-15T07:43:12;96937.19;;;10.42;81.16
3697;BME280;60662;48.810;8.872;2024-02-15T07:44:13;96959.88;;;10.17;82.53
3697;BME280;60662;48.810;8.872;2024-02-15T07:45:15;96971.75;;;10.02;83.32
3697;BME280;60662;48.810;8.872;2024-02-15T07:46:17;96957.84;;;10.01;83.07
3697;BME280;60662;48.810;8.872;2024-02-15T07:47:18;96959.53;;;9.55;84.62
3697;BME280;60662;48.810;8.872;2024-02-15T07:48:22;96970.41;;;9.66;84.80
3697;BME280;60662;48.810;8.872;2024-02-15T07:49:23;96971.16;;;9.70;84.90
3697;BME280;60662;48.810;8.872;2024-02-15T07:50:26;96963.34;;;9.70;84.48
3697;BME280;60662;48.810;8.872;2024-02-15T07:51:28;96963.06;;;9.28;86.06
3697;BME280;60662;48.810;8.872;2024-02-15T07:52:29;96967.75;;;9.44;85.64
3697;BME280;60662;48.810;8.872;2024-02-15T07:53:31;96952.94;;;9.44;85.88
3697;BME280;60662;48.810;8.872;2024-02-15T07:54:32;96959.91;;;9.69;85.39
3697;BME280;60662;48.810;8.872;2024-02-15T07:55:34;96963.69;;;9.60;85.22
3697;BME280;60662;48.810;8.872;2024-02-15T07:59:14;96959.38;;;9.09;87.60
3697;BME280;60662;48.810;8.872;2024-02-15T08:00:18;96959.28;;;9.12;87.49
3697;BME280;60662;48.810;8.872;2024-02-15T08:03:04;96965.16;;;8.92;88.40
3697;BME280;60662;48.810;8.872;2024-02-15T08:04:06;96968.59;;;8.92;88.73
3697;BME280;60662;48.810;8.872;2024-02-15T08:05:09;96958.53;;;9.08;88.50
3697;BME280;60662;48.810;8.872;2024-02-15T08:06:12;96971.22;;;9.18;88.08
3697;BME280;60662;48.810;8.872;2024-02-15T08:07:14;96963.09;;;9.02;87.93
3697;BME280;60662;48.810;8.872;2024-02-15T08:08:16;96964.06;;;8.97;88.18
3697;BME280;60662;48.810;8.872;2024-02-15T08:09:17;96964.50;;;9.12;87.57
3697;BME280;60662;48.810;8.872;2024-02-15T08:10:21;96954.38;;;9.28;86.99
3697;BME280;60662;48.810;8.872;2024-02-15T08:11:23;96959.22;;;9.39;86.48
3697;BME280;60662;48.810;8.872;2024-02-15T08:12:27;96958.31;;;9.40;86.20
3697;BME280;60662;48.810;8.872;2024-02-15T08:13:29;96953.66;;;9.24;86.44
3697;BME280;60662;48.810;8.872;2024-02-15T08:14:30;96954.91;;;9.38;86.53
3697;BME280;60662;48.810;8.872;2024-02-15T08:15:33;96956.56;;;9.40;85.93
3697;BME280;60662;48.810;8.872;2024-02-15T08:16:35;96946.53;;;9.29;86.24
3697;BME280;60662;48.810;8.872;2024-02-15T08:17:36;96959.28;;;9.12;86.98
3697;BME280;60662;48.810;8.872;2024-02-15T08:18:38;96954.41;;;9.01;87.43
3697;BME280;60662;48.810;8.872;2024-02-15T08:21:30;96958.72;;;9.02;87.38
3697;BME280;60662;48.810;8.872;2024-02-15T08:24:25;96911.13;;;8.43;88.42
3697;BME280;60662;48.810;8.872;2024-02-15T08:27:08;96930.50;;;8.63;89.26
3697;BME280;60662;48.810;8.872;2024-02-15T08:29:46;96932.19;;;8.64;89.51
3697;BME280;60662;48.810;8.872;2024-02-15T08:32:12;96925.72;;;8.76;88.99
3697;BME280;60662;48.810;8.872;2024-02-15T08:33:13;96920.13;;;8.61;89.28
3697;BME280;60662;48.810;8.872;2024-02-15T08:34:15;96886.69;;;8.49;89.46
3697;BME280;60662;48.810;8.872;2024-02-15T08:35:16;96935.75;;;8.88;88.70
3697;BME280;60662;48.810;8.872;2024-02-15T08:36:18;96932.44;;;8.83;88.70
3697;BME280;60662;48.810;8.872;2024-02-15T08:37:20;96925.06;;;8.96;88.80
3697;BME280;60662;48.810;8.872;2024-02-15T08:38:22;96929.44;;;8.95;88.19
3697;BME280;60662;48.810;8.872;2024-02-15T08:39:24;96907.38;;;9.06;87.48
3697;BME280;60662;48.810;8.872;2024-02-15T08:40:25;96898.69;;;9.05;86.87
3697;BME280;60662;48.810;8.872;2024-02-15T08:41:27;96929.47;;;9.44;86.59
3697;BME280;60662;48.810;8.872;2024-02-15T08:42:29;96927.69;;;9.70;84.84
3697;BME280;60662;48.810;8.872;2024-02-15T08:43:31;96925.31;;;9.64;84.74
3697;BME280;60662;48.810;8.872;2024-02-15T08:44:35;96925.22;;;10.13;83.35
3697;BME280;60662;48.810;8.872;2024-02-15T08:45:36;96921.09;;;10.29;82.95
3697;BME280;60662;48.810;8.872;2024-02-15T08:46:38;96920.56;;;10.45;82.24
3697;BME280;60662;48.810;8.872;2024-02-15T08:47:41;96922.44;;;10.84;81.05
3697;BME280;60662;48.810;8.872;2024-02-15T08:48:43;96920.84;;;11.23;78.81
3697;BME280;60662;48.810;8.872;2024-02-15T08:49:45;96917.50;;;10.99;79.07
3697;BME280;60662;48.810;8.872;2024-02-15T08:50:47;96920.38;;;11.34;78.14
3697;BME280;60662;48.810;8.872;2024-02-15T08:51:48;96923.19;;;11.29;78.24
3697;BME280;60662;48.810;8.872;2024-02-15T08:52:50;96926.25;;;11.79;77.10
3697;BME280;60662;48.810;8.872;2024-02-15T08:53:51;96922.78;;;12.18;75.45
3697;BME280;60662;48.810;8.872;2024-02-15T08:54:53;96919.06;;;12.41;74.58
3697;BME280;60662;48.810;8.872;2024-02-15T08:55:57;96920.59;;;12.45;74.41
3697;BME280;60662;48.810;8.872;2024-02-15T08:56:59;96919.28;;;12.90;73.00
3697;BME280;60662;48.810;8.872;2024-02-15T08:58:00;96911.19;;;13.30;71.15
3697;BME280;60662;48.810;8.872;2024-02-15T08:59:02;96915.75;;;13.09;71.73
3697;BME280;60662;48.810;8.872;2024-02-15T09:00:05;96916.69;;;13.08;72.13
3697;BME280;60662;48.810;8.872;2024-02-15T09:01:14;96916.69;;;13.08;72.13
3697;BME280;60662;48.810;8.872;2024-02-15T09:02:16;96917.84;;;14.04;69.43
3697;BME280;60662;48.810;8.872;2024-02-15T09:03:18;96912.38;;;13.76;69.63
3697;BME280;60662;48.810;8.872;2024-02-15T09:04:20;96925.97;;;14.16;68.46
3697;BME280;60662;48.810;8.872;2024-02-15T09:05:25;96907.47;;;14.33;67.74
3697;BME280;60662;48.810;8.872;2024-02-15T09:06:26;96918.34;;;14.43;67.55
3697;BME280;60662;48.810;8.872;2024-02-15T09:07:28;96911.78;;;14.82;67.15
3697;BME280;60662;48.810;8.872;2024-02-15T09:08:31;96920.56;;;14.35;66.96
3697;BME280;60662;48.810;8.872;2024-02-15T09:09:33;96916.66;;;14.74;66.79
3697;BME280;60662;48.810;8.872;2024-02-15T09:10:35;96915.47;;;15.25;64.81
3697;BME280;60662;48.810;8.872;2024-02-15T09:11:40;55703.94;;;-145.49;100.00
3697;BME280;60662;48.810;8.872;2024-02-15T09:12:43;55703.94;;;-145.49;100.00
3697;BME280;60662;48.810;8.872;2024-02-15T09:13:46;96915.47;;;15.25;64.81
3697;BME280;60662;48.810;8.872;2024-02-15T09:14:48;96916.19;;;14.50;66.07
3697;BME280;60662;48.810;8.872;2024-02-15T09:15:49;96918.97;;;14.95;65.99
3697;BME280;60662;48.810;8.872;2024-02-15T09:16:51;96917.13;;;15.71;64.10
3697;BME280;60662;48.810;8.872;2024-02-15T09:17:53;96917.91;;;15.87;63.69
3697;BME280;60662;48.810;8.872;2024-02-15T09:18:56;96912.06;;;15.82;63.22
3697;BME280;60662;48.810;8.872;2024-02-15T09:20:02;96924.94;;;15.72;63.32
3697;BME280;60662;48.810;8.872;2024-02-15T09:21:03;96920.56;;;15.42;63.96
3697;BME280;60662;48.810;8.872;2024-02-15T09:22:06;96914.78;;;15.66;63.45
3697;BME280;60662;48.810;8.872;2024-02-15T09:23:08;96919.47;;;15.61;63.58
3697;BME280;60662;48.810;8.872;2024-02-15T09:24:11;96921.75;;;15.81;63.16
3697;BME280;60662;48.810;8.872;2024-02-15T09:25:13;96901.53;;;15.82;62.97
3697;BME280;60662;48.810;8.872;2024-02-15T09:26:14;96912.97;;;15.66;63.02
3697;BME280;60662;48.810;8.872;2024-02-15T09:27:16;96917.06;;;15.87;62.83
3697;BME280;60662;48.810;8.872;2024-02-15T09:28:18;96913.91;;;15.51;63.42
3697;BME280;60662;48.810;8.872;2024-02-15T09:29:23;96915.69;;;15.79;63.20
3697;BME280;60662;48.810;8.872;2024-02-15T09:30:25;96912.88;;;16.26;62.35
3697;BME280;60662;48.810;8.872;2024-02-15T09:31:29;96905.56;;;16.44;61.51
3697;BME280;60662;48.810;8.872;2024-02-15T09:32:31;96903.88;;;15.72;62.57
3697;BME280;60662;48.810;8.872;2024-02-15T09:33:32;96899.22;;;16.61;61.38
3697;BME280;60662;48.810;8.872;2024-02-15T09:34:34;96908.81;;;17.17;59.58
3697;BME280;60662;48.810;8.872;2024-02-15T09:35:36;96892.94;;;16.76;60.12
3697;BME280;60662;48.810;8.872;2024-02-15T09:36:39;96908.53;;;16.67;60.79
3697;BME280;60662;48.810;8.872;2024-02-15T09:37:49;96898.69;;;16.56;60.91
3697;BME280;60662;48.810;8.872;2024-02-15T09:38:51;96896.97;;;17.09;60.48
3697;BME280;60662;48.810;8.872;2024-02-15T09:39:54;96885.25;;;17.26;59.02
3697;BME280;60662;48.810;8.872;2024-02-15T09:40:56;96899.44;;;17.38;58.80
3697;BME280;60662;48.810;8.872;2024-02-15T09:41:58;96890.97;;;17.98;57.94
3697;BME280;60662;48.810;8.872;2024-02-15T09:43:00;96894.84;;;17.92;58.03
3697;BME280;60662;48.810;8.872;2024-02-15T09:44:01;96896.34;;;17.96;57.40
3697;BME280;60662;48.810;8.872;2024-02-15T09:45:08;96889.41;;;18.32;56.85
3697;BME280;60662;48.810;8.872;2024-02-15T09:46:17;96890.38;;;18.80;55.91
3697;BME280;60662;48.810;8.872;2024-02-15T09:47:19;96895.66;;;18.31;56.75
3697;BME280;60662;48.810;8.872;2024-02-15T09:48:23;96898.41;;;18.78;55.97
3697;BME280;60662;48.810;8.872;2024-02-15T09:49:26;96884.28;;;18.66;55.94
3697;BME280;60662;48.810;8.872;2024-02-15T09:50:29;96893.19;;;18.65;56.38
3697;BME280;60662;48.810;8.872;2024-02-15T09:51:34;96890.69;;;18.75;55.73
3697;BME280;60662;48.810;8.872;2024-02-15T09:52:44;96887.56;;;18.94;55.39
3697;BME280;60662;48.810;8.872;2024-02-15T09:53:47;96891.16;;;18.93;54.87
3697;BME280;60662;48.810;8.872;2024-02-15T09:54:48;96891.44;;;19.01;55.20
3697;BME280;60662;48.810;8.872;2024-02-15T09:55:53;96894.31;;;19.45;54.65
3697;BME280;60662;48.810;8.872;2024-02-15T09:56:56;96896.63;;;18.54;55.54
3697;BME280;60662;48.810;8.872;2024-02-15T09:58:02;96875.06;;;18.96;55.11
3697;BME280;60662;48.810;8.872;2024-02-15T09:59:06;96889.28;;;19.53;53.95
3697;BME280;60662;48.810;8.872;2024-02-15T10:00:09;96889.31;;;20.21;52.47
3697;BME280;60662;48.810;8.872;2024-02-15T10:01:16;96890.41;;;19.85;52.70
3697;BME280;60662;48.810;8.872;2024-02-15T10:02:21;96884.66;;;19.91;52.83
3697;BME280;60662;48.810;8.872;2024-02-15T10:03:25;96885.31;;;19.70;53.30
3697;BME280;60662;48.810;8.872;2024-02-15T10:04:28;96889.38;;;19.40;53.60
3697;BME280;60662;48.810;8.872;2024-02-15T10:05:30;96876.91;;;19.88;52.51
3697;BME280;60662;48.810;8.872;2024-02-15T10:06:32;96873.19;;;20.02;52.72
3697;BME280;60662;48.810;8.872;2024-02-15T10:07:33;96872.88;;;20.39;51.64
3697;BME280;60662;48.810;8.872;2024-02-15T10:08:35;96876.78;;;20.79;50.55
3697;BME280;60662;48.810;8.872;2024-02-15T10:09:36;96875.66;;;20.37;51.51
3697;BME280;60662;48.810;8.872;2024-02-15T10:10:38;96871.06;;;18.66;53.37
3697;BME280;60662;48.810;8.872;2024-02-15T10:11:53;96862.34;;;19.01;53.60
3697;BME280;60662;48.810;8.872;2024-02-15T10:12:56;96854.41;;;20.49;51.26
3697;BME280;60662;48.810;8.872;2024-02-15T10:14:10;96863.38;;;21.96;48.34
3697;BME280;60662;48.810;8.872;2024-02-15T10:15:26;96867.25;;;20.65;50.13
3697;BME280;60662;48.810;8.872;2024-02-15T10:16:31;96865.91;;;21.24;49.50
3697;BME280;60662;48.810;8.872;2024-02-15T10:17:36;96853.00;;;21.41;48.96
3697;BME280;60662;48.810;8.872;2024-02-15T10:18:38;96872.69;;;19.97;50.74
3697;BME280;60662;48.810;8.872;2024-02-15T10:19:41;96852.59;;;19.94;51.81
3697;BME280;60662;48.810;8.872;2024-02-15T10:20:57;96871.06;;;19.37;53.37
3697;BME280;60662;48.810;8.872;2024-02-15T10:22:09;96876.09;;;19.99;51.51
3697;BME280;60662;48.810;8.872;2024-02-15T10:23:12;96863.75;;;19.75;51.93
3697;BME280;60662;48.810;8.872;2024-02-15T10:24:22;96871.25;;;18.52;54.39
3697;BME280;60662;48.810;8.872;2024-02-15T10:25:27;96879.94;;;19.14;53.22
3697;BME280;60662;48.810;8.872;2024-02-15T10:26:29;96864.28;;;18.86;53.11
3697;BME280;60662;48.810;8.872;2024-02-15T10:27:31;96873.41;;;17.84;54.79
3697;BME280;60662;48.810;8.872;2024-02-15T10:28:39;96870.56;;;18.00;54.39
3697;BME280;60662;48.810;8.872;2024-02-15T10:29:41;96865.84;;;18.29;54.48
3697;BME280;60662;48.810;8.872;2024-02-15T10:30:43;96866.84;;;18.39;54.25
3697;BME280;60662;48.810;8.872;2024-02-15T10:31:58;96859.19;;;18.23;54.54
3697;BME280;60662;48.810;8.872;2024-02-15T10:33:01;96863.88;;;18.68;53.21
3697;BME280;60662;48.810;8.872;2024-02-15T10:34:07;96860.47;;;18.18;54.15
3697;BME280;60662;48.810;8.872;2024-02-15T10:35:09;96850.59;;;18.57;53.19
3697;BME280;60662;48.810;8.872;2024-02-15T10:36:11;96848.53;;;17.23;56.39
3697;BME280;60662;48.810;8.872;2024-02-15T10:37:15;96866.63;;;17.92;54.90
3697;BME280;60662;48.810;8.872;2024-02-15T10:38:25;96856.22;;;18.28;53.88
3697;BME280;60662;48.810;8.872;2024-02-15T10:39:26;96855.19;;;18.42;53.65
3697;BME280;60662;48.810;8.872;2024-02-15T10:40:29;96856.56;;;18.10;54.29
3697;BME280;60662;48.810;8.872;2024-02-15T10:41:30;96837.28;;;17.84;54.65
3697;BME280;60662;48.810;8.872;2024-02-15T10:42:32;96856.72;;;18.82;52.95
3697;BME280;60662;48.810;8.872;2024-02-15T10:43:36;96854.53;;;18.75;53.37
3697;BME280;60662;48.810;8.872;2024-02-15T10:44:41;96855.25;;;18.77;53.94
3697;BME280;60662;48.810;8.872;2024-02-15T10:45:45;96854.94;;;18.58;53.15
3697;BME280;60662;48.810;8.872;2024-02-15T10:46:48;96851.16;;;18.49;52.65
3697;BME280;60662;48.810;8.872;2024-02-15T10:47:53;96850.06;;;19.00;52.64
3697;BME280;60662;48.810;8.872;2024-02-15T10:48:55;96852.63;;;18.29;53.70
3697;BME280;60662;48.810;8.872;2024-02-15T10:49:58;96838.88;;;18.24;53.81
3697;BME280;60662;48.810;8.872;2024-02-15T10:51:00;96839.28;;;19.26;52.70
3697;BME280;60662;48.810;8.872;2024-02-15T10:52:04;96843.78;;;19.48;51.47
3697;BME280;60662;48.810;8.872;2024-02-15T10:53:30;96848.19;;;19.25;51.97
3697;BME280;60662;48.810;8.872;2024-02-15T10:54:38;96850.13;;;18.87;52.91
3697;BME280;60662;48.810;8.872;2024-02-15T10:56:53;96839.31;;;18.90;52.91
3697;BME280;60662;48.810;8.872;2024-02-15T10:58:01;96842.06;;;18.89;53.07
3697;BME280;60662;48.810;8.872;2024-02-15T11:00:16;96829.59;;;18.91;52.52
3697;BME280;60662;48.810;8.872;2024-02-15T11:01:23;96832.28;;;18.78;53.07
3697;BME280;60662;48.810;8.872;2024-02-15T11:02:28;96841.19;;;19.13;52.47
3697;BME280;60662;48.810;8.872;2024-02-15T11:03:35;96824.69;;;18.98;52.27
3697;BME280;60662;48.810;8.872;2024-02-15T11:04:39;96843.00;;;18.88;53.03
3697;BME280;60662;48.810;8.872;2024-02-15T11:05:43;96830.03;;;18.85;52.19
3697;BME280;60662;48.810;8.872;2024-02-15T11:06:48;96833.25;;;19.13;51.46
3697;BME280;60662;48.810;8.872;2024-02-15T11:07:52;96838.72;;;19.90;50.90
3697;BME280;60662;48.810;8.872;2024-02-15T11:08:56;96832.19;;;20.17;50.82
3697;BME280;60662;48.810;8.872;2024-02-15T11:09:58;96833.25;;;20.26;50.21
3697;BME280;60662;48.810;8.872;2024-02-15T11:11:01;96826.59;;;18.96;51.88
3697;BME280;60662;48.810;8.872;2024-02-15T11:12:06;96832.94;;;19.74;50.61
3697;BME280;60662;48.810;8.872;2024-02-15T11:13:09;96820.47;;;18.71;52.87
3697;BME280;60662;48.810;8.872;2024-02-15T11:14:30;96819.06;;;18.05;53.57
3697;BME280;60662;48.810;8.872;2024-02-15T11:16:41;96824.72;;;17.75;54.95
3697;BME280;60662;48.810;8.872;2024-02-15T11:17:48;96805.72;;;17.70;54.99
3697;BME280;60662;48.810;8.872;2024-02-15T11:18:51;96814.41;;;17.59;55.93
3697;BME280;60662;48.810;8.872;2024-02-15T11:19:54;96811.38;;;18.02;55.01
3697;BME280;60662;48.810;8.872;2024-02-15T11:20:57;96811.78;;;18.33;53.96
3697;BME280;60662;48.810;8.872;2024-02-15T11:22:01;96806.53;;;18.44;54.05
3697;BME280;60662;48.810;8.872;2024-02-15T11:23:08;96803.66;;;18.12;54.28
3697;BME280;60662;48.810;8.872;2024-02-15T11:24:28;96811.78;;;16.94;57.42
3697;BME280;60662;48.810;8.872;2024-02-15T11:25:34;96813.34;;;16.84;57.53
3697;BME280;60662;48.810;8.872;2024-02-15T11:26:46;96802.38;;;17.42;56.01
3697;BME280;60662;48.810;8.872;2024-02-15T11:27:50;96802.22;;;17.19;55.74
3697;BME280;60662;48.810;8.872;2024-02-15T11:28:52;96802.00;;;17.85;55.86
3697;BME280;60662;48.810;8.872;2024-02-15T11:31:00;96800.22;;;16.02;59.15
3697;BME280;60662;48.810;8.872;2024-02-15T11:32:04;96796.09;;;15.98;59.61
3697;BME280;60662;48.810;8.872;2024-02-15T11:33:27;96802.50;;;16.21;59.25
3697;BME280;60662;48.810;8.872;2024-02-15T11:34:41;96792.50;;;16.94;57.95
3697;BME280;60662;48.810;8.872;2024-02-15T11:37:03;96789.16;;;16.24;58.83
3697;BME280;60662;48.810;8.872;2024-02-15T11:38:04;96793.03;;;16.99;58.03
3697;BME280;60662;48.810;8.872;2024-02-15T11:39:39;96787.78;;;16.85;57.28
3697;BME280;60662;48.810;8.872;2024-02-15T11:41:43;96781.56;;;18.00;55.54
3697;BME280;60662;48.810;8.872;2024-02-15T11:42:45;96781.41;;;17.27;56.80
3697;BME280;60662;48.810;8.872;2024-02-15T11:43:50;96778.31;;;17.46;56.65
3697;BME280;60662;48.810;8.872;2024-02-15T11:45:06;96776.97;;;18.15;55.11
3697;BME280;60662;48.810;8.872;2024-02-15T11:46:12;96772.22;;;17.20;57.08
3697;BME280;60662;48.810;8.872;2024-02-15T11:47:16;96773.44;;;17.66;56.52
3697;BME280;60662;48.810;8.872;2024-02-15T11:48:20;96768.03;;;18.05;55.69
3697;BME280;60662;48.810;8.872;2024-02-15T11:49:22;96773.59;;;18.13;54.74
3697;BME280;60662;48.810;8.872;2024-02-15T11:50:24;96775.72;;;18.08;55.04
3697;BME280;60662;48.810;8.872;2024-02-15T11:51:27;96770.50;;;18.43;54.66
3697;BME280;60662;48.810;8.872;2024-02-15T11:52:29;96762.56;;;17.95;55.13
3697;BME280;60662;48.810;8.872;2024-02-15T11:53:30;96766.78;;;18.22;54.55
3697;BME280;60662;48.810;8.872;2024-02-15T11:54:32;96760.06;;;18.18;55.08
3697;BME280;60662;48.810;8.872;2024-02-15T11:55:33;96755.66;;;18.30;54.79
3697;BME280;60662;48.810;8.872;2024-02-15T11:57:54;96761.00;;;17.42;56.59
3697;BME280;60662;48.810;8.872;2024-02-15T11:59:03;96748.53;;;17.44;56.67
3697;BME280;60662;48.810;8.872;2024-02-15T12:00:07;96769.91;;;17.16;57.02
3697;BME280;60662;48.810;8.872;2024-02-15T12:01:36;96761.97;;;17.28;57.24
3697;BME280;60662;48.810;8.872;2024-02-15T12:03:00;96759.78;;;16.43;58.33
3697;BME280;60662;48.810;8.872;2024-02-15T12:04:20;96761.06;;;15.83;59.65
3697;BME280;60662;48.810;8.872;2024-02-15T12:05:40;96755.16;;;16.34;59.63
3697;BME280;60662;48.810;8.872;2024-02-15T12:07:01;96754.50;;;17.09;57.58
3697;BME280;60662;48.810;8.872;2024-02-15T12:08:21;96749.75;;;17.14;57.71
3697;BME280;60662;48.810;8.872;2024-02-15T12:09:41;96747.75;;;17.05;57.37
3697;BME280;60662;48.810;8.872;2024-02-15T12:11:04;96749.94;;;16.20;59.15
3697;BME280;60662;48.810;8.872;2024-02-15T12:12:24;96751.66;;;16.46;59.07
3697;BME280;60662;48.810;8.872;2024-02-15T12:13:50;96756.50;;;16.40;58.62
3697;BME280;60662;48.810;8.872;2024-02-15T12:15:10;96756.84;;;15.66;61.04
3697;BME280;60662;48.810;8.872;2024-02-15T12:16:32;96757.75;;;15.94;60.86
3697;BME280;60662;48.810;8.872;2024-02-15T12:17:52;96752.16;;;16.79;58.81
3697;BME280;60662;48.810;8.872;2024-02-15T12:19:20;96742.88;;;16.86;58.71
3697;BME280;60662;48.810;8.872;2024-02-15T12:20:23;96750.03;;;16.84;58.57
3697;BME280;60662;48.810;8.872;2024-02-15T12:21:27;96735.03;;;16.72;58.34
3697;BME280;60662;48.810;8.872;2024-02-15T12:22:35;96746.25;;;17.14;57.95
3697;BME280;60662;48.810;8.872;2024-02-15T12:23:39;96742.94;;;16.59;58.46
3697;BME280;60662;48.810;8.872;2024-02-15T12:24:42;96734.03;;;17.00;58.29
3697;BME280;60662;48.810;8.872;2024-02-15T12:25:51;96735.91;;;16.72;58.24
3697;BME280;60662;48.810;8.872;2024-02-15T12:27:00;96732.28;;;16.47;58.92
3697;BME280;60662;48.810;8.872;2024-02-15T12:28:03;96737.38;;;16.10;59.46
3697;BME280;60662;48.810;8.872;2024-02-15T12:29:07;96729.75;;;15.78;59.58
3697;BME280;60662;48.810;8.872;2024-02-15T12:30:16;96733.78;;;15.84;60.36
3697;BME280;60662;48.810;8.872;2024-02-15T12:31:30;96723.84;;;16.02;60.30
3697;BME280;60662;48.810;8.872;2024-02-15T12:32:33;96707.78;;;16.20;59.46
3697;BME280;60662;48.810;8.872;2024-02-15T12:33:34;96711.47;;;16.30;59.57
3697;BME280;60662;48.810;8.872;2024-02-15T12:34:36;96711.81;;;16.25;59.84
3697;BME280;60662;48.810;8.872;2024-02-15T12:35:44;96724.13;;;16.38;58.98
3697;BME280;60662;48.810;8.872;2024-02-15T12:36:46;96716.03;;;16.28;59.15
3697;BME280;60662;48.810;8.872;2024-02-15T12:39:05;96723.69;;;15.49;60.95
3697;BME280;60662;48.810;8.872;2024-02-15T12:40:17;96722.50;;;15.40;61.10
3697;BME280;60662;48.810;8.872;2024-02-15T12:41:20;96721.22;;;15.18;61.63
3697;BME280;60662;48.810;8.872;2024-02-15T12:42:21;96716.50;;;15.09;61.91
3697;BME280;60662;48.810;8.872;2024-02-15T12:43:24;96715.13;;;15.60;61.37
3697;BME280;60662;48.810;8.872;2024-02-15T12:44:25;96716.75;;;15.75;60.31
3697;BME280;60662;48.810;8.872;2024-02-15T12:45:28;96709.75;;;15.61;60.88
3697;BME280;60662;48.810;8.872;2024-02-15T12:46:32;96710.50;;;16.05;60.53
3697;BME280;60662;48.810;8.872;2024-02-15T12:47:33;96711.38;;;15.77;60.37
3697;BME280;60662;48.810;8.872;2024-02-15T12:48:35;96711.63;;;15.17;60.99
3697;BME280;60662;48.810;8.872;2024-02-15T12:49:37;96710.44;;;15.50;60.65
3697;BME280;60662;48.810;8.872;2024-02-15T12:50:39;96711.69;;;15.16;61.54
3697;BME280;60662;48.810;8.872;2024-02-15T12:51:49;96695.28;;;15.12;61.38
3697;BME280;60662;48.810;8.872;2024-02-15T12:52:52;96703.44;;;15.22;61.40
3697;BME280;60662;48.810;8.872;2024-02-15T12:54:08;96703.16;;;15.27;61.43
3697;BME280;60662;48.810;8.872;2024-02-15T12:55:20;96697.78;;;15.28;60.94
3697;BME280;60662;48.810;8.872;2024-02-15T12:56:22;96654.00;;;15.42;60.54
3697;BME280;60662;48.810;8.872;2024-02-15T12:57:28;96693.38;;;15.29;60.92
3697;BME280;60662;48.810;8.872;2024-02-15T12:58:30;96699.59;;;14.99;62.27
3697;BME280;60662;48.810;8.872;2024-02-15T12:59:32;96701.19;;;15.30;60.80
3697;BME280;60662;48.810;8.872;2024-02-15T13:00:34;96693.97;;;15.61;60.55
3697;BME280;60662;48.810;8.872;2024-02-15T13:01:42;96694.72;;;15.63;59.97
3697;BME280;60662;48.810;8.872;2024-02-15T13:02:48;96699.38;;;15.31;60.84
3697;BME280;60662;48.810;8.872;2024-02-15T13:03:54;96690.75;;;15.14;60.51
3697;BME280;60662;48.810;8.872;2024-02-15T13:04:59;96698.47;;;14.89;61.20
3697;BME280;60662;48.810;8.872;2024-02-15T13:06:00;96692.09;;;14.78;61.93
3697;BME280;60662;48.810;8.872;2024-02-15T13:07:02;96681.16;;;14.41;62.69
3697;BME280;60662;48.810;8.872;2024-02-15T13:08:04;96689.00;;;14.86;62.44
3697;BME280;60662;48.810;8.872;2024-02-15T13:09:14;96686.91;;;15.20;61.58
3697;BME280;60662;48.810;8.872;2024-02-15T13:10:16;96680.69;;;15.63;60.10
3697;BME280;60662;48.810;8.872;2024-02-15T13:11:18;96676.22;;;15.78;59.19
3697;BME280;60662;48.810;8.872;2024-02-15T13:12:20;96674.13;;;15.97;59.26
3697;BME280;60662;48.810;8.872;2024-02-15T13:13:21;96671.69;;;15.52;60.48
3697;BME280;60662;48.810;8.872;2024-02-15T13:14:24;96665.19;;;15.31;60.47
3697;BME280;60662;48.810;8.872;2024-02-15T13:15:27;96671.69;;;15.11;61.41
3697;BME280;60662;48.810;8.872;2024-02-15T13:16:29;96665.69;;;15.09;61.67
3697;BME280;60662;48.810;8.872;2024-02-15T13:17:32;96673.56;;;15.23;61.62
3697;BME280;60662;48.810;8.872;2024-02-15T13:18:38;96663.63;;;15.14;60.89
3697;BME280;60662;48.810;8.872;2024-02-15T13:19:45;96677.34;;;15.19;61.23
3697;BME280;60662;48.810;8.872;2024-02-15T13:20:47;96666.03;;;15.31;60.63
3697;BME280;60662;48.810;8.872;2024-02-15T13:21:51;96672.59;;;15.39;60.64
3697;BME280;60662;48.810;8.872;2024-02-15T13:22:54;96667.75;;;15.60;61.13
3697;BME280;60662;48.810;8.872;2024-02-15T13:23:58;96685.22;;;15.61;60.45
3697;BME280;60662;48.810;8.872;2024-02-15T13:25:00;96673.94;;;15.59;60.58
3697;BME280;60662;48.810;8.872;2024-02-15T13:26:02;96672.19;;;15.87;60.62
3697;BME280;60662;48.810;8.872;2024-02-15T13:27:05;96671.47;;;15.70;60.15
3697;BME280;60662;48.810;8.872;2024-02-15T13:28:07;96665.72;;;15.36;60.85